Saturday, February 28, 2015
05:19 UTC
  |  Log In   |  Register Free
Airport Search:

Pearson Field Airport
(KVUO)

Pearson Field Airport Diagram
No Airport Diagram Available

FAA data valid effective January 08, 2015 - March 05, 2015 (unless otherwise noted).

 
 
 
 
 
 
 
 
 
 
 
 
 
 

Current Aviation Weather for Pearson Field Airport (KVUO)

The most recent METAR observation for KVUO was updated at: 0516
METAR Summary (Translated METAR)
KVUO
280453Z AUTO 00000KT 10SM OVC080 07/04 A2979 RMK AO2 SLP088 T00720039 $
KPDX
280453Z 10009KT 10SM BKN080 OVC110 08/04 A2979 RMK AO2 SLP087 T00830039
(3.1 nm SE from KVUO)
KTTD
280453Z 11010KT 10SM OVC085 08/03 A2978 RMK AO2 SLP082 T00830033
(11.5 nm SE from KVUO)
TAF Summary (Translated TAF)
KPDX
(3.1 nm SE from KVUO)
280252Z 2803/2824 10009KT P6SM VCSH SCT030 BKN060 FM280500 10009KT P6SM FEW030 BKN060 FM281300 08011KT P6SM SCT060 FM281800 07010G20KT P6SM FEW250
KTTD
(11.5 nm SE from KVUO)
271746Z 2718/2818 21005KT P6SM -SHRA SCT025 OVC035 FM272000 VRB04KT P6SM -SHRAGS SCT020 OVC030 FM280100 10007KT P6SM VCSH SCT035 BKN050 FM280500 09011KT P6SM BKN090 FM281600 09015G25KT P6SM BKN200
  Airport Weather Conditions for KVUO

 Current Weather at VUO
45° F
Overcast
North winds at 0.0 mph
VUO NOAA Radar

Pressure: 29.79 in
Humidity: 80%
Wind: Calm
Dew Point: 39.0°F
Visibility: 10.00 mi


Airport Weather Forecast for KVUO

Translated METAR and TAF for KVUO
Translated METAR for KVUO (0519 UTC 28 February 2015)
found at http://aviationweather.gov/adds/metars/
 
METAR text: KVUO 280453Z AUTO 00000KT 10SM OVC080 07/04 A2979 RMK AO2 SLP088 T00720039 $
Conditions at: KVUO (VANCOUVER , WA, US) observed 0453 UTC 28 February 2015
Temperature: 7.2°C (45°F)
Dewpoint: 3.9°C (39°F) [RH = 80%]
Pressure (altimeter): 29.79 inches Hg (1008.9 mb)
[Sea-level pressure: 1008.8 mb]
Winds: calm
Visibility: 10 or more miles (16+ km)
Ceiling: 8000 feet AGL
Clouds: overcast cloud deck at 8000 feet AGL
Weather:
SOME DATA ABOVE MAY BE INACCURATE!!!
"$" is an indication the sensor requires maintenance
Translated TAF for KVUO

There is no translated TAF available for this airport

Find All Airport Services Find A Hotel Find A Rental Car Find A Golf Course Find A Restaurant $100 Hamburger



FBO's on the Field
FBO Company Facility Photos Services Transportation Aviation Fuel Prices: Prices include tax
Catering Weather Repair Courtesy Rental Type 100LL JetA JetA+ MOGAS 8087
 
Aero Maintenance Inc

This FBO has not yet been rated
FS:Epic
Last Updated: Jan-27
Login to update fuel prices
SS:
Contact Aero Maintenance IncMore FBO Information
 
Add another FBO Facility Photos Catering Weather Repair Courtesy Rental Type 100LL JetA JetA+ MOGAS 8087
Services Transportation Aviation Fuel Prices: Prices include tax


model-print
model-print
model-print
model-print